createdAt,value
2018-08-28T00:01:31.605Z,90.37
2018-08-28T00:03:59.909Z,89.96
2018-08-28T00:06:28.177Z,89.55
2018-08-28T00:08:56.669Z,90.24
2018-08-28T00:11:25.140Z,91.13
2018-08-28T00:13:53.415Z,90.95
2018-08-28T00:16:21.691Z,91.09
2018-08-28T00:18:49.941Z,90.63
2018-08-28T00:21:18.217Z,90.70
2018-08-28T00:23:46.653Z,91.35
2018-08-28T00:26:14.898Z,90.77
2018-08-28T00:28:43.154Z,91.54
2018-08-28T00:31:11.417Z,92.31
2018-08-28T00:33:39.673Z,92.11
2018-08-28T00:36:07.958Z,92.34
2018-08-28T00:38:37.310Z,92.56
2018-08-28T00:41:05.590Z,92.76
2018-08-28T00:43:33.839Z,92.50
2018-08-28T00:46:02.137Z,92.56
2018-08-28T00:48:30.407Z,92.33
2018-08-28T00:50:58.677Z,92.78
2018-08-28T00:53:26.971Z,93.19
2018-08-28T00:55:55.243Z,93.37
2018-08-28T00:58:24.569Z,93.08
2018-08-28T01:00:52.860Z,92.96
2018-08-28T01:03:21.097Z,93.15
2018-08-28T01:05:49.411Z,93.13
2018-08-28T01:08:17.681Z,92.80
2018-08-28T01:10:46.989Z,92.12
2018-08-28T01:13:15.239Z,92.24
2018-08-28T01:15:43.513Z,92.72
2018-08-28T01:18:11.759Z,92.28
2018-08-28T01:20:40.014Z,91.67
2018-08-28T01:23:08.302Z,91.23
2018-08-28T01:25:36.557Z,90.85
2018-08-28T01:28:04.964Z,92.00
2018-08-28T01:30:33.969Z,92.05
2018-08-28T01:33:03.928Z,91.76
2018-08-28T01:35:32.369Z,91.82
2018-08-28T01:38:00.756Z,91.75
2018-08-28T01:40:29.545Z,92.10
2018-08-28T01:42:57.837Z,92.58
2018-08-28T01:45:26.115Z,93.45
2018-08-28T01:47:54.390Z,93.60
2018-08-28T01:50:22.714Z,94.37
2018-08-28T01:52:50.997Z,94.26
2018-08-28T01:55:19.250Z,94.17
2018-08-28T01:57:47.513Z,94.48
2018-08-28T02:00:15.762Z,94.57
2018-08-28T02:02:44.053Z,94.36
2018-08-28T02:05:12.327Z,94.57
2018-08-28T02:07:40.640Z,94.77
2018-08-28T02:10:08.960Z,94.28
2018-08-28T02:12:38.280Z,94.01
2018-08-28T02:15:07.569Z,93.97
2018-08-28T02:17:35.917Z,94.12
2018-08-28T02:20:04.833Z,94.30
2018-08-28T02:22:33.125Z,94.59
2018-08-28T02:25:01.479Z,94.73
2018-08-28T02:27:29.736Z,94.91
2018-08-28T02:29:58.061Z,94.72
2018-08-28T02:32:26.329Z,94.80
2018-08-28T02:34:54.613Z,94.81
2018-08-28T02:37:22.881Z,94.88
2018-08-28T02:39:51.206Z,94.69
2018-08-28T02:42:19.517Z,94.84
2018-08-28T02:44:47.803Z,94.54
2018-08-28T02:47:16.069Z,94.56
2018-08-28T02:49:45.381Z,94.68
2018-08-28T02:52:13.680Z,94.54
2018-08-28T02:54:41.987Z,94.66
2018-08-28T02:57:10.299Z,94.10
2018-08-28T02:59:38.558Z,93.54
2018-08-28T03:02:06.933Z,94.52
2018-08-28T03:04:35.217Z,94.24
2018-08-28T03:07:03.484Z,93.99
2018-08-28T03:09:31.801Z,94.21
2018-08-28T03:12:00.109Z,94.33
2018-08-28T03:14:28.367Z,94.12
2018-08-28T03:16:56.629Z,93.77
2018-08-28T03:19:24.929Z,94.17
2018-08-28T03:21:53.290Z,94.40
2018-08-28T03:24:21.552Z,93.85
2018-08-28T03:26:49.844Z,94.38
2018-08-28T03:29:18.109Z,93.95
2018-08-28T03:31:46.420Z,93.65
2018-08-28T03:34:14.818Z,93.86
2018-08-28T03:36:43.113Z,94.17
2018-08-28T03:39:11.486Z,94.04
2018-08-28T03:41:39.773Z,93.90
2018-08-28T03:44:09.069Z,93.76
2018-08-28T03:46:37.468Z,93.18
2018-08-28T03:49:05.757Z,93.43
2018-08-28T03:51:34.061Z,93.88
2018-08-28T03:54:02.329Z,94.13
2018-08-28T03:56:30.641Z,94.16
2018-08-28T03:58:58.912Z,93.88
2018-08-28T04:01:27.215Z,93.81
2018-08-28T04:03:55.530Z,93.88
2018-08-28T04:06:23.825Z,93.58
2018-08-28T04:08:52.144Z,93.30
2018-08-28T04:11:21.444Z,93.48
2018-08-28T04:13:49.740Z,93.05
2018-08-28T04:16:18.021Z,93.31
2018-08-28T04:18:46.305Z,93.38
2018-08-28T04:21:15.700Z,93.30
2018-08-28T04:23:44.018Z,92.96
2018-08-28T04:26:12.301Z,92.41
2018-08-28T04:28:40.635Z,92.58
2018-08-28T04:31:08.925Z,92.85
2018-08-28T04:33:37.222Z,92.53
2018-08-28T04:36:05.525Z,92.42
2018-08-28T04:38:34.877Z,92.41
2018-08-28T04:41:03.153Z,92.74
2018-08-28T04:43:31.565Z,92.02
2018-08-28T04:45:59.829Z,92.42
2018-08-28T04:48:28.208Z,92.24
2018-08-28T04:50:56.458Z,92.30
2018-08-28T04:53:24.786Z,92.03
2018-08-28T04:55:53.225Z,92.22
2018-08-28T04:58:22.596Z,91.94
2018-08-28T05:00:50.960Z,91.51
2018-08-28T05:03:20.262Z,91.80
2018-08-28T05:05:48.713Z,91.45
2018-08-28T05:08:17.026Z,91.21
2018-08-28T05:10:45.405Z,90.50
2018-08-28T05:13:14.772Z,90.62
2018-08-28T05:15:43.170Z,90.07
2018-08-28T05:18:11.431Z,90.30
2018-08-28T05:20:39.849Z,89.48
2018-08-28T05:23:10.247Z,89.43
2018-08-28T05:25:38.542Z,89.00
2018-08-28T05:28:07.021Z,88.64
2018-08-28T05:30:35.388Z,88.38
2018-08-28T05:33:03.649Z,88.35
2018-08-28T05:35:31.949Z,87.69
2018-08-28T05:38:00.263Z,87.35
2018-08-28T05:40:28.500Z,87.69
2018-08-28T05:42:56.772Z,87.40
2018-08-28T05:45:25.170Z,86.02
2018-08-28T05:47:53.445Z,85.99
2018-08-28T05:50:21.742Z,85.79
2018-08-28T05:52:49.995Z,85.55
2018-08-28T05:55:18.291Z,85.40
2018-08-28T05:57:48.601Z,84.82
2018-08-28T06:00:17.941Z,84.88
2018-08-28T06:02:46.302Z,85.26
2018-08-28T06:05:14.658Z,85.13
2018-08-28T06:07:42.965Z,85.09
2018-08-28T06:10:11.245Z,85.70
2018-08-28T06:12:40.608Z,85.85
2018-08-28T06:15:09.049Z,84.91
2018-08-28T06:17:37.340Z,84.11
2018-08-28T06:20:06.105Z,84.55
2018-08-28T06:22:34.438Z,83.69
2018-08-28T06:25:03.857Z,83.45
2018-08-28T06:27:32.149Z,84.84
2018-08-28T06:30:00.399Z,83.82
2018-08-28T06:32:28.753Z,84.82
2018-08-28T06:34:57.026Z,83.48
2018-08-28T06:37:25.467Z,81.33
2018-08-28T06:39:55.641Z,82.26
2018-08-28T06:42:24.922Z,81.60
2018-08-28T06:44:53.185Z,81.80
2018-08-28T06:47:22.497Z,80.64
2018-08-28T06:49:51.820Z,80.63
2018-08-28T06:52:20.120Z,79.22
2018-08-28T06:54:48.390Z,80.09
2018-08-28T06:57:17.758Z,79.15
2018-08-28T06:59:46.326Z,78.79
2018-08-28T07:02:14.592Z,79.08
2018-08-28T07:04:42.893Z,78.58
2018-08-28T07:07:11.366Z,78.60
2018-08-28T07:09:40.665Z,77.74
2018-08-28T07:12:08.970Z,76.83
2018-08-28T07:14:37.242Z,76.21
2018-08-28T07:17:06.557Z,75.22
2018-08-28T07:19:34.853Z,74.68
2018-08-28T07:22:03.444Z,74.65
2018-08-28T07:24:31.713Z,74.48
2018-08-28T07:27:00.057Z,73.20
2018-08-28T07:29:28.321Z,72.14
2018-08-28T07:31:56.680Z,72.70
2018-08-28T07:34:24.889Z,70.60
2018-08-28T07:36:54.236Z,70.59
2018-08-28T07:39:22.565Z,69.42
2018-08-28T07:41:51.893Z,70.77
2018-08-28T07:44:20.399Z,70.94
2018-08-28T07:46:48.675Z,71.14
2018-08-28T07:49:17.047Z,71.77
2018-08-28T07:51:45.353Z,71.46
2018-08-28T07:54:13.619Z,70.64
2018-08-28T07:56:41.915Z,70.28
2018-08-28T07:59:10.187Z,69.97
2018-08-28T08:01:39.205Z,69.22
2018-08-28T08:04:07.509Z,67.17
2018-08-28T08:06:35.845Z,65.87
2018-08-28T08:09:07.688Z,66.16
2018-08-28T08:11:35.989Z,65.17
2018-08-28T08:14:04.349Z,64.25
2018-08-28T08:16:32.617Z,62.39
2018-08-28T08:19:00.913Z,62.03
2018-08-28T08:21:29.235Z,62.16
2018-08-28T08:23:57.554Z,60.26
2018-08-28T08:26:25.864Z,60.22
2018-08-28T08:28:55.245Z,59.56
2018-08-28T08:31:23.572Z,59.33
2018-08-28T08:33:51.909Z,60.06
2018-08-28T08:36:20.230Z,59.69
2018-08-28T08:38:48.554Z,61.47
2018-08-28T08:41:16.905Z,60.79
2018-08-28T08:43:45.202Z,60.60
2018-08-28T08:46:13.562Z,59.73
2018-08-28T08:48:41.822Z,58.78
2018-08-28T08:51:10.110Z,61.10
2018-08-28T08:53:38.481Z,61.20
2018-08-28T08:56:06.801Z,63.36
2018-08-28T08:58:36.084Z,66.00
2018-08-28T09:01:04.382Z,67.37
2018-08-28T09:03:32.695Z,68.81
2018-08-28T09:06:01.222Z,69.23
2018-08-28T09:08:29.475Z,70.75
2018-08-28T09:10:57.793Z,71.12
2018-08-28T09:13:26.096Z,71.02
2018-08-28T09:15:54.371Z,73.55
2018-08-28T09:18:23.727Z,75.28
2018-08-28T09:20:52.017Z,78.13
2018-08-28T09:23:20.313Z,78.37
2018-08-28T09:25:48.621Z,81.01
2018-08-28T09:28:16.985Z,81.98
2018-08-28T09:30:45.278Z,81.44
2018-08-28T09:33:13.577Z,80.08
2018-08-28T09:35:41.901Z,79.72
2018-08-28T09:38:11.330Z,76.76
2018-08-28T09:40:39.669Z,74.09
2018-08-28T09:43:07.966Z,71.88
2018-08-28T09:45:36.237Z,72.00
2018-08-28T09:48:04.624Z,70.55
2018-08-28T09:50:33.074Z,68.71
2018-08-28T09:53:01.357Z,68.99
2018-08-28T09:55:29.652Z,67.94
2018-08-28T09:57:59.039Z,68.29
2018-08-28T10:00:30.121Z,69.47
2018-08-28T10:02:59.239Z,70.40
2018-08-28T10:05:27.533Z,67.42
2018-08-28T10:07:55.924Z,68.16
2018-08-28T10:10:25.234Z,67.14
2018-08-28T10:12:53.545Z,69.70
2018-08-28T10:15:21.851Z,68.48
2018-08-28T10:17:50.138Z,69.71
2018-08-28T10:20:18.402Z,68.64
2018-08-28T10:22:46.815Z,68.70
2018-08-28T10:25:15.081Z,70.04
2018-08-28T10:27:43.388Z,70.40
2018-08-28T10:30:11.702Z,69.45
2018-08-28T10:32:39.981Z,69.85
2018-08-28T10:35:08.717Z,70.67
2018-08-28T10:37:37.032Z,70.18
2018-08-28T10:40:06.399Z,68.55
2018-08-28T10:42:34.681Z,67.70
2018-08-28T10:45:03.054Z,66.94
2018-08-28T10:47:31.319Z,67.32
2018-08-28T10:49:59.786Z,64.23
2018-08-28T10:52:28.155Z,64.83
2018-08-28T10:54:56.672Z,63.87
2018-08-28T10:57:25.006Z,62.05
2018-08-28T10:59:54.041Z,60.68
2018-08-28T11:02:22.549Z,59.91
2018-08-28T11:04:50.845Z,60.14
2018-08-28T11:07:19.129Z,59.59
2018-08-28T11:09:47.417Z,62.08
2018-08-28T11:12:16.721Z,61.19
2018-08-28T11:14:45.006Z,61.59
2018-08-28T11:17:13.269Z,61.58
2018-08-28T11:19:41.596Z,60.40
2018-08-28T11:22:10.052Z,61.34
2018-08-28T11:24:38.334Z,59.06
2018-08-28T11:27:06.594Z,57.47
2018-08-28T11:29:35.278Z,58.26
2018-08-28T11:32:04.710Z,58.24
2018-08-28T11:34:33.969Z,58.04
2018-08-28T11:37:02.376Z,58.75
2018-08-28T11:39:30.638Z,57.71
2018-08-28T11:42:00.984Z,56.80
2018-08-28T11:44:33.238Z,57.68
2018-08-28T11:47:01.625Z,57.50
2018-08-28T11:49:29.963Z,56.15
2018-08-28T11:51:58.276Z,57.31
2018-08-28T11:54:26.567Z,58.39
2018-08-28T11:56:56.117Z,58.64
2018-08-28T11:59:24.638Z,58.76
2018-08-28T12:01:52.978Z,58.40
2018-08-28T12:04:21.312Z,56.82
2018-08-28T12:06:49.707Z,54.64
2018-08-28T12:09:17.891Z,54.70
2018-08-28T12:11:46.293Z,54.54
2018-08-28T12:14:14.569Z,53.75
2018-08-28T12:16:42.887Z,53.86
2018-08-28T12:19:11.186Z,53.71
2018-08-28T12:21:40.157Z,54.15
2018-08-28T12:24:09.485Z,55.44
2018-08-28T12:26:39.321Z,54.90
2018-08-28T12:29:07.614Z,55.76
2018-08-28T12:31:37.014Z,56.17
2018-08-28T12:34:06.433Z,57.71
2018-08-28T12:36:34.805Z,56.65
2018-08-28T12:39:05.561Z,57.71
2018-08-28T12:41:33.830Z,56.78
2018-08-28T12:44:02.262Z,55.49
2018-08-28T12:46:30.464Z,53.80
2018-08-28T12:48:58.797Z,53.28
2018-08-28T12:51:28.313Z,54.02
2018-08-28T12:53:56.493Z,53.88
2018-08-28T12:56:24.773Z,54.62
2018-08-28T12:58:54.218Z,55.25
2018-08-28T13:01:22.457Z,55.96
2018-08-28T13:03:50.772Z,57.18
2018-08-28T13:06:20.113Z,58.31
2018-08-28T13:08:48.426Z,59.02
2018-08-28T13:11:16.709Z,59.77
2018-08-28T13:13:46.200Z,59.60
2018-08-28T13:16:14.473Z,59.73
2018-08-28T13:18:42.838Z,60.46
2018-08-28T13:21:11.086Z,60.25
2018-08-28T13:23:40.410Z,60.33
2018-08-28T13:26:08.920Z,60.32
2018-08-28T13:28:37.054Z,59.30
2018-08-28T13:31:05.621Z,59.18
2018-08-28T13:33:33.906Z,57.22
2018-08-28T13:36:02.238Z,57.37
2018-08-28T13:38:30.505Z,58.64
2018-08-28T13:40:58.828Z,56.89
2018-08-28T13:43:27.146Z,57.78
2018-08-28T13:45:55.477Z,57.52
2018-08-28T13:48:23.801Z,56.80
2018-08-28T13:50:52.091Z,58.50
2018-08-28T13:53:20.365Z,57.30
2018-08-28T13:55:48.810Z,57.71
2018-08-28T13:58:17.130Z,56.69
2018-08-28T14:00:46.534Z,56.78
2018-08-28T14:03:14.846Z,56.04
2018-08-28T14:05:44.169Z,52.98
2018-08-28T14:08:13.615Z,52.28
2018-08-28T14:10:42.993Z,51.76
2018-08-28T14:13:11.303Z,51.46
2018-08-28T14:15:39.627Z,51.02
2018-08-28T14:18:07.954Z,51.55
2018-08-28T14:20:36.301Z,50.65
2018-08-28T14:23:04.765Z,50.50
2018-08-28T14:25:33.162Z,49.71
2018-08-28T14:28:01.466Z,51.17
2018-08-28T14:30:31.836Z,51.69
2018-08-28T14:33:00.257Z,50.49
2018-08-28T14:35:29.636Z,51.68
2018-08-28T14:37:57.955Z,52.89
2018-08-28T14:40:26.356Z,52.92
2018-08-28T14:42:54.577Z,53.33
2018-08-28T14:45:22.881Z,51.96
2018-08-28T14:47:51.479Z,51.15
2018-08-28T14:50:19.897Z,53.04
2018-08-28T14:52:48.167Z,53.05
2018-08-28T14:55:17.593Z,51.87
2018-08-28T14:57:45.893Z,51.78
2018-08-28T15:00:14.178Z,50.85
2018-08-28T15:02:42.502Z,52.22
2018-08-28T15:05:10.758Z,51.99
2018-08-28T15:07:40.201Z,52.43
2018-08-28T15:10:08.509Z,52.39
2018-08-28T15:12:36.855Z,53.07
2018-08-28T15:15:05.198Z,52.11
2018-08-28T15:17:33.920Z,51.51
2018-08-28T15:20:02.210Z,52.51
2018-08-28T15:22:30.685Z,52.99
2018-08-28T15:24:58.991Z,53.62
2018-08-28T15:27:27.436Z,52.96
2018-08-28T15:29:55.729Z,52.60
2018-08-28T15:32:24.005Z,54.00
2018-08-28T15:34:52.333Z,54.81
2018-08-28T15:37:20.668Z,54.84
2018-08-28T15:39:49.071Z,54.47
2018-08-28T15:42:18.357Z,55.17
2018-08-28T15:44:47.702Z,55.56
2018-08-28T15:47:15.977Z,54.37
2018-08-28T15:49:44.286Z,53.63
2018-08-28T15:55:02.986Z,53.90
2018-08-28T15:57:31.220Z,53.96
2018-08-28T15:59:59.498Z,53.77
2018-08-28T16:02:27.784Z,54.26
2018-08-28T16:04:56.078Z,53.83
2018-08-28T16:07:24.329Z,53.46
2018-08-28T16:09:52.627Z,53.71
2018-08-28T16:12:20.892Z,54.55
2018-08-28T16:14:49.189Z,54.31
2018-08-28T16:17:17.473Z,54.88
2018-08-28T16:19:45.766Z,54.46
2018-08-28T16:22:16.148Z,54.35
2018-08-28T16:24:44.437Z,54.68
2018-08-28T16:27:12.756Z,55.01
2018-08-28T16:29:41.041Z,55.94
2018-08-28T16:32:10.311Z,55.75
2018-08-28T16:34:39.786Z,56.75
2018-08-28T16:37:08.139Z,56.75
2018-08-28T16:39:36.510Z,56.95
2018-08-28T16:42:04.797Z,56.99
2018-08-28T16:44:33.109Z,56.59
2018-08-28T16:47:01.390Z,57.11
2018-08-28T16:49:29.661Z,57.61
2018-08-28T16:51:58.946Z,57.21
2018-08-28T16:54:27.215Z,57.93
2018-08-28T16:56:55.514Z,58.45
2018-08-28T16:59:24.861Z,58.38
2018-08-28T17:01:54.656Z,59.36
2018-08-28T17:04:24.890Z,58.85
2018-08-28T17:06:53.182Z,58.98
2018-08-28T17:09:21.446Z,59.29
2018-08-28T17:11:49.714Z,59.29
2018-08-28T17:14:18.039Z,59.17
2018-08-28T17:16:46.339Z,59.12
2018-08-28T17:19:14.662Z,59.36
2018-08-28T17:21:42.930Z,60.11
2018-08-28T17:24:12.453Z,60.22
2018-08-28T17:26:40.774Z,61.58
2018-08-28T17:29:09.117Z,61.18
2018-08-28T17:31:37.397Z,61.46
2018-08-28T17:34:05.808Z,61.25
2018-08-28T17:36:34.133Z,62.11
2018-08-28T17:39:03.953Z,62.04
2018-08-28T17:41:32.282Z,61.95
2018-08-28T17:44:01.597Z,62.36
2018-08-28T17:46:32.001Z,62.78
2018-08-28T17:49:00.351Z,62.47
2018-08-28T17:51:28.586Z,62.44
2018-08-28T17:53:57.860Z,62.94
2018-08-28T17:56:27.123Z,62.72
2018-08-28T17:58:55.469Z,62.88
2018-08-28T18:01:23.794Z,63.03
2018-08-28T18:03:52.150Z,63.45
2018-08-28T18:06:20.348Z,63.16
2018-08-28T18:08:48.622Z,63.10
2018-08-28T18:11:16.945Z,63.65
2018-08-28T18:13:45.201Z,63.72
2018-08-28T18:16:15.607Z,63.43
2018-08-28T18:18:43.913Z,63.74
2018-08-28T18:21:12.185Z,63.62
2018-08-28T18:23:40.683Z,63.41
2018-08-28T18:26:09.057Z,63.93
2018-08-28T18:28:37.400Z,64.14
2018-08-28T18:31:05.704Z,63.99
2018-08-28T18:33:34.025Z,64.41
2018-08-28T18:36:02.449Z,65.01
2018-08-28T18:38:31.770Z,64.87
2018-08-28T18:41:00.059Z,64.92
2018-08-28T18:43:32.906Z,65.05
2018-08-28T18:46:01.198Z,65.04
2018-08-28T18:48:29.513Z,64.94
2018-08-28T18:50:58.917Z,65.85
2018-08-28T18:53:27.269Z,65.40
2018-08-28T18:55:55.542Z,65.16
2018-08-28T18:58:24.021Z,65.60
2018-08-28T19:00:52.320Z,65.84
2018-08-28T19:03:20.709Z,66.03
2018-08-28T19:05:48.970Z,65.98
2018-08-28T19:08:18.254Z,65.55
2018-08-28T19:10:47.592Z,65.08
2018-08-28T19:13:15.906Z,65.49
2018-08-28T19:15:46.348Z,65.56
2018-08-28T19:18:14.684Z,65.11
2018-08-28T19:20:44.121Z,65.17
2018-08-28T19:23:12.477Z,65.27
2018-08-28T19:25:40.753Z,65.50
2018-08-28T19:28:09.086Z,65.48
2018-08-28T19:30:37.308Z,65.61
2018-08-28T19:33:05.698Z,66.27
2018-08-28T19:35:33.949Z,66.30
2018-08-28T19:38:02.217Z,66.13
2018-08-28T19:40:30.506Z,66.03
2018-08-28T19:42:58.899Z,66.23
2018-08-28T19:45:27.158Z,66.20
2018-08-28T19:47:55.425Z,65.90
2018-08-28T19:50:23.673Z,66.08
2018-08-28T19:52:51.957Z,66.02
2018-08-28T19:55:21.389Z,66.35
2018-08-28T19:57:49.688Z,65.88
2018-08-28T20:00:20.845Z,66.15
2018-08-28T20:02:49.133Z,66.43
2018-08-28T20:05:17.394Z,66.33
2018-08-28T20:07:45.806Z,66.29
2018-08-28T20:10:14.254Z,66.27
2018-08-28T20:12:42.521Z,66.29
2018-08-28T20:15:10.821Z,66.27
2018-08-28T20:17:39.154Z,66.70
2018-08-28T20:20:07.422Z,66.07
2018-08-28T20:22:35.725Z,66.75
2018-08-28T20:25:04.005Z,66.88
2018-08-28T20:27:32.281Z,66.38
2018-08-28T20:30:00.605Z,66.30
2018-08-28T20:32:28.880Z,66.83
2018-08-28T20:34:57.153Z,67.07
2018-08-28T20:37:25.753Z,66.61
2018-08-28T20:39:53.946Z,66.56
2018-08-28T20:42:22.210Z,66.51
2018-08-28T20:44:50.723Z,66.95
2018-08-28T20:47:19.005Z,67.21
2018-08-28T20:49:47.281Z,66.76
2018-08-28T20:52:15.745Z,67.63
2018-08-28T20:54:44.010Z,67.64
2018-08-28T20:57:12.263Z,67.70
2018-08-28T20:59:40.547Z,68.40
2018-08-28T21:02:08.821Z,68.72
2018-08-28T21:04:37.069Z,69.30
2018-08-28T21:07:05.730Z,69.98
2018-08-28T21:09:33.990Z,71.20
2018-08-28T21:12:02.264Z,71.29
2018-08-28T21:14:31.552Z,71.76
2018-08-28T21:16:59.835Z,71.56
2018-08-28T21:19:28.079Z,72.04
2018-08-28T21:21:56.352Z,72.97
2018-08-28T21:24:24.601Z,73.43
2018-08-28T21:26:52.883Z,74.16
2018-08-28T21:29:21.210Z,74.78
2018-08-28T21:31:49.841Z,75.65
2018-08-28T21:34:18.097Z,74.78
2018-08-28T21:36:46.381Z,75.52
2018-08-28T21:39:14.635Z,76.34
2018-08-28T21:41:42.885Z,75.94
2018-08-28T21:44:11.454Z,76.67
2018-08-28T21:46:39.700Z,77.07
2018-08-28T21:49:07.977Z,77.26
2018-08-28T21:51:36.225Z,77.39
2018-08-28T21:54:04.561Z,78.08
2018-08-28T21:56:32.849Z,78.01
2018-08-28T21:59:02.205Z,78.53
2018-08-28T22:01:30.538Z,79.15
2018-08-28T22:03:59.881Z,79.86
2018-08-28T22:06:33.430Z,79.37
2018-08-28T22:09:01.711Z,79.79
2018-08-28T22:11:29.986Z,80.08
2018-08-28T22:13:58.244Z,79.78
2018-08-28T22:16:26.538Z,80.30
2018-08-28T22:18:54.805Z,80.27
2018-08-28T22:21:23.066Z,80.28
2018-08-28T22:23:51.565Z,79.82
2018-08-28T22:26:19.830Z,79.35
2018-08-28T22:28:48.101Z,79.66
2018-08-28T22:31:16.385Z,79.82
2018-08-28T22:33:46.742Z,79.81
2018-08-28T22:36:15.003Z,79.61
2018-08-28T22:38:43.410Z,79.95
2018-08-28T22:41:11.720Z,80.68
2018-08-28T22:43:39.995Z,80.61
2018-08-28T22:46:09.292Z,81.67
2018-08-28T22:48:37.534Z,81.28
2018-08-28T22:51:05.849Z,81.68
2018-08-28T22:53:34.563Z,82.12
2018-08-28T22:56:02.822Z,82.20
2018-08-28T22:58:31.093Z,82.41
2018-08-28T23:01:01.278Z,82.71
2018-08-28T23:03:29.549Z,82.88
2018-08-28T23:05:57.796Z,82.89
2018-08-28T23:08:26.172Z,83.75
2018-08-28T23:10:54.409Z,84.11
2018-08-28T23:13:22.689Z,83.25
2018-08-28T23:15:52.094Z,83.23
2018-08-28T23:18:21.466Z,84.27
2018-08-28T23:20:49.713Z,84.77
2018-08-28T23:23:17.997Z,85.30
2018-08-28T23:25:46.247Z,84.85
2018-08-28T23:28:14.485Z,84.94
2018-08-28T23:30:42.767Z,84.05
2018-08-28T23:33:11.009Z,84.21
2018-08-28T23:35:39.280Z,84.73
2018-08-28T23:38:07.769Z,84.92
2018-08-28T23:40:36.005Z,84.75
2018-08-28T23:43:04.286Z,85.12
2018-08-28T23:45:32.590Z,85.03
2018-08-28T23:48:00.834Z,84.68
2018-08-28T23:50:29.101Z,84.67
2018-08-28T23:52:57.387Z,85.26
2018-08-28T23:55:25.677Z,85.60
2018-08-28T23:57:53.921Z,85.43
